sensor_id;sensor_type;location;lat;lon;timestamp;P1;durP1;ratioP1;P2;durP2;ratioP2
36555;SDS011;40859;50.560;7.268;2022-12-07T16:06:17;12.77;;;2.60;;
36555;SDS011;40859;50.560;7.268;2022-12-07T16:08:44;7.78;;;2.00;;
36555;SDS011;40859;50.560;7.268;2022-12-07T16:11:11;12.85;;;1.73;;
36555;SDS011;40859;50.560;7.268;2022-12-07T16:13:39;11.02;;;3.35;;
36555;SDS011;40859;50.560;7.268;2022-12-07T16:16:06;10.02;;;2.58;;
36555;SDS011;40859;50.560;7.268;2022-12-07T16:18:35;10.30;;;2.05;;
36555;SDS011;40859;50.560;7.268;2022-12-07T16:21:01;14.20;;;2.17;;
36555;SDS011;40859;50.560;7.268;2022-12-07T16:23:28;10.63;;;3.53;;
36555;SDS011;40859;50.560;7.268;2022-12-07T16:25:55;18.75;;;2.58;;
36555;SDS011;40859;50.560;7.268;2022-12-07T16:28:28;9.17;;;2.27;;
36555;SDS011;40859;50.560;7.268;2022-12-07T16:31:16;10.98;;;2.42;;
36555;SDS011;40859;50.560;7.268;2022-12-07T16:34:43;10.85;;;2.90;;
36555;SDS011;40859;50.560;7.268;2022-12-07T16:37:09;14.57;;;2.47;;
36555;SDS011;40859;50.560;7.268;2022-12-07T16:39:35;13.80;;;2.80;;
36555;SDS011;40859;50.560;7.268;2022-12-07T16:42:01;20.23;;;3.05;;
36555;SDS011;40859;50.560;7.268;2022-12-07T16:44:27;17.98;;;2.55;;
36555;SDS011;40859;50.560;7.268;2022-12-07T16:46:53;19.50;;;2.65;;
36555;SDS011;40859;50.560;7.268;2022-12-07T16:49:20;21.00;;;2.67;;
36555;SDS011;40859;50.560;7.268;2022-12-07T16:51:49;7.20;;;2.17;;
36555;SDS011;40859;50.560;7.268;2022-12-07T16:54:16;11.32;;;1.95;;
36555;SDS011;40859;50.560;7.268;2022-12-07T16:56:42;19.48;;;2.50;;
36555;SDS011;40859;50.560;7.268;2022-12-07T17:02:17;13.65;;;2.33;;
36555;SDS011;40859;50.560;7.268;2022-12-07T17:04:44;8.45;;;2.50;;
36555;SDS011;40859;50.560;7.268;2022-12-07T17:07:09;25.83;;;8.73;;
36555;SDS011;40859;50.560;7.268;2022-12-07T17:09:36;110.63;;;38.35;;
36555;SDS011;40859;50.560;7.268;2022-12-07T17:12:02;284.75;;;114.45;;
36555;SDS011;40859;50.560;7.268;2022-12-07T17:14:31;461.50;;;195.05;;
36555;SDS011;40859;50.560;7.268;2022-12-07T17:19:41;559.70;;;245.12;;
36555;SDS011;40859;50.560;7.268;2022-12-07T17:22:07;560.87;;;244.27;;
36555;SDS011;40859;50.560;7.268;2022-12-07T17:24:36;539.30;;;241.57;;
36555;SDS011;40859;50.560;7.268;2022-12-07T17:27:02;521.85;;;226.77;;
36555;SDS011;40859;50.560;7.268;2022-12-07T17:29:29;488.08;;;215.52;;
36555;SDS011;40859;50.560;7.268;2022-12-07T17:31:55;480.42;;;207.43;;
36555;SDS011;40859;50.560;7.268;2022-12-07T17:34:21;482.15;;;195.40;;
36555;SDS011;40859;50.560;7.268;2022-12-07T17:36:46;436.98;;;182.15;;
36555;SDS011;40859;50.560;7.268;2022-12-07T17:39:17;420.95;;;180.85;;
36555;SDS011;40859;50.560;7.268;2022-12-07T17:41:45;414.10;;;174.82;;
36555;SDS011;40859;50.560;7.268;2022-12-07T17:45:33;394.17;;;164.43;;
36555;SDS011;40859;50.560;7.268;2022-12-07T17:48:03;382.30;;;162.80;;
36555;SDS011;40859;50.560;7.268;2022-12-07T17:50:30;383.13;;;162.75;;
36555;SDS011;40859;50.560;7.268;2022-12-07T17:55:40;366.48;;;151.93;;
36555;SDS011;40859;50.560;7.268;2022-12-07T17:58:06;367.75;;;151.80;;
36555;SDS011;40859;50.560;7.268;2022-12-07T18:00:32;347.67;;;144.80;;
36555;SDS011;40859;50.560;7.268;2022-12-07T18:03:04;336.15;;;142.20;;
36555;SDS011;40859;50.560;7.268;2022-12-07T18:05:33;332.23;;;138.40;;
36555;SDS011;40859;50.560;7.268;2022-12-07T18:08:01;337.38;;;138.00;;
36555;SDS011;40859;50.560;7.268;2022-12-07T18:10:26;321.73;;;133.63;;
36555;SDS011;40859;50.560;7.268;2022-12-07T18:12:53;319.35;;;129.65;;
36555;SDS011;40859;50.560;7.268;2022-12-07T18:16:00;282.40;;;124.12;;
36555;SDS011;40859;50.560;7.268;2022-12-07T18:18:34;286.40;;;120.75;;
36555;SDS011;40859;50.560;7.268;2022-12-07T18:21:02;294.27;;;115.82;;
36555;SDS011;40859;50.560;7.268;2022-12-07T18:23:29;276.83;;;107.70;;
36555;SDS011;40859;50.560;7.268;2022-12-07T18:25:55;324.20;;;128.75;;
36555;SDS011;40859;50.560;7.268;2022-12-07T18:28:22;345.10;;;133.55;;
36555;SDS011;40859;50.560;7.268;2022-12-07T18:30:48;319.48;;;129.05;;
36555;SDS011;40859;50.560;7.268;2022-12-07T18:33:17;331.90;;;132.68;;
36555;SDS011;40859;50.560;7.268;2022-12-07T18:35:45;311.58;;;125.10;;
36555;SDS011;40859;50.560;7.268;2022-12-07T18:38:13;324.15;;;130.73;;
36555;SDS011;40859;50.560;7.268;2022-12-07T18:40:40;303.83;;;125.12;;
36555;SDS011;40859;50.560;7.268;2022-12-07T18:43:08;288.10;;;119.75;;
36555;SDS011;40859;50.560;7.268;2022-12-07T18:45:39;295.42;;;120.47;;
36555;SDS011;40859;50.560;7.268;2022-12-07T18:48:07;308.30;;;123.07;;
36555;SDS011;40859;50.560;7.268;2022-12-07T18:50:34;281.65;;;114.62;;
36555;SDS011;40859;50.560;7.268;2022-12-07T18:53:00;272.70;;;111.90;;
36555;SDS011;40859;50.560;7.268;2022-12-07T18:55:27;263.55;;;110.20;;
36555;SDS011;40859;50.560;7.268;2022-12-07T18:57:54;247.37;;;103.65;;
36555;SDS011;40859;50.560;7.268;2022-12-07T19:00:22;247.10;;;103.80;;
36555;SDS011;40859;50.560;7.268;2022-12-07T19:02:50;248.07;;;98.85;;
36555;SDS011;40859;50.560;7.268;2022-12-07T19:05:16;244.77;;;97.37;;
36555;SDS011;40859;50.560;7.268;2022-12-07T19:07:43;225.20;;;94.20;;
36555;SDS011;40859;50.560;7.268;2022-12-07T19:10:10;229.55;;;91.47;;
36555;SDS011;40859;50.560;7.268;2022-12-07T19:12:38;226.45;;;87.95;;
36555;SDS011;40859;50.560;7.268;2022-12-07T19:15:04;201.40;;;82.80;;
36555;SDS011;40859;50.560;7.268;2022-12-07T19:17:33;199.27;;;83.12;;
36555;SDS011;40859;50.560;7.268;2022-12-07T19:20:01;184.45;;;78.18;;
36555;SDS011;40859;50.560;7.268;2022-12-07T19:22:28;177.10;;;77.50;;
36555;SDS011;40859;50.560;7.268;2022-12-07T19:27:24;190.48;;;75.65;;
36555;SDS011;40859;50.560;7.268;2022-12-07T19:29:51;185.98;;;74.82;;
36555;SDS011;40859;50.560;7.268;2022-12-07T19:37:15;166.90;;;68.05;;
36555;SDS011;40859;50.560;7.268;2022-12-07T19:39:41;164.02;;;68.55;;
36555;SDS011;40859;50.560;7.268;2022-12-07T19:42:12;161.10;;;63.10;;
36555;SDS011;40859;50.560;7.268;2022-12-07T19:44:38;150.87;;;62.75;;
36555;SDS011;40859;50.560;7.268;2022-12-07T19:47:05;156.37;;;62.53;;
36555;SDS011;40859;50.560;7.268;2022-12-07T19:49:32;149.02;;;59.45;;
36555;SDS011;40859;50.560;7.268;2022-12-07T19:52:00;142.40;;;58.22;;
36555;SDS011;40859;50.560;7.268;2022-12-07T19:54:29;142.65;;;52.90;;
36555;SDS011;40859;50.560;7.268;2022-12-07T19:56:56;139.30;;;53.95;;
36555;SDS011;40859;50.560;7.268;2022-12-07T19:59:23;129.80;;;53.33;;
36555;SDS011;40859;50.560;7.268;2022-12-07T20:01:55;129.95;;;52.53;;
36555;SDS011;40859;50.560;7.268;2022-12-07T20:04:22;128.95;;;50.03;;
36555;SDS011;40859;50.560;7.268;2022-12-07T20:06:51;128.73;;;49.00;;
36555;SDS011;40859;50.560;7.268;2022-12-07T20:09:20;120.45;;;49.85;;
36555;SDS011;40859;50.560;7.268;2022-12-07T20:11:46;110.28;;;48.15;;
36555;SDS011;40859;50.560;7.268;2022-12-07T20:14:32;118.95;;;47.33;;
36555;SDS011;40859;50.560;7.268;2022-12-07T20:16:58;108.45;;;44.72;;
36555;SDS011;40859;50.560;7.268;2022-12-07T20:19:24;116.05;;;45.55;;
36555;SDS011;40859;50.560;7.268;2022-12-07T20:21:51;109.97;;;45.25;;
36555;SDS011;40859;50.560;7.268;2022-12-07T20:24:19;99.95;;;41.50;;
36555;SDS011;40859;50.560;7.268;2022-12-07T20:26:48;109.85;;;43.03;;
36555;SDS011;40859;50.560;7.268;2022-12-07T20:29:17;111.55;;;41.85;;
36555;SDS011;40859;50.560;7.268;2022-12-07T20:31:45;96.12;;;37.78;;
36555;SDS011;40859;50.560;7.268;2022-12-07T20:34:13;94.55;;;38.13;;
36555;SDS011;40859;50.560;7.268;2022-12-07T20:36:39;86.15;;;35.95;;
36555;SDS011;40859;50.560;7.268;2022-12-07T20:39:06;81.95;;;36.50;;
36555;SDS011;40859;50.560;7.268;2022-12-07T20:41:32;86.78;;;35.78;;
36555;SDS011;40859;50.560;7.268;2022-12-07T20:44:17;110.88;;;38.53;;
36555;SDS011;40859;50.560;7.268;2022-12-07T20:46:44;119.22;;;38.80;;
36555;SDS011;40859;50.560;7.268;2022-12-07T20:49:10;115.87;;;35.57;;
36555;SDS011;40859;50.560;7.268;2022-12-07T20:51:38;95.07;;;34.60;;
36555;SDS011;40859;50.560;7.268;2022-12-07T20:54:04;69.25;;;30.48;;
36555;SDS011;40859;50.560;7.268;2022-12-07T20:56:31;78.78;;;31.62;;
36555;SDS011;40859;50.560;7.268;2022-12-07T20:58:58;79.68;;;31.75;;
36555;SDS011;40859;50.560;7.268;2022-12-07T21:01:26;76.97;;;29.17;;
36555;SDS011;40859;50.560;7.268;2022-12-07T21:03:53;74.87;;;30.27;;
36555;SDS011;40859;50.560;7.268;2022-12-07T21:06:20;77.20;;;30.10;;
36555;SDS011;40859;50.560;7.268;2022-12-07T21:08:47;72.37;;;29.65;;
36555;SDS011;40859;50.560;7.268;2022-12-07T21:11:18;73.90;;;27.40;;
36555;SDS011;40859;50.560;7.268;2022-12-07T21:13:45;56.53;;;26.60;;
36555;SDS011;40859;50.560;7.268;2022-12-07T21:16:30;62.72;;;26.95;;
36555;SDS011;40859;50.560;7.268;2022-12-07T21:19:39;64.93;;;25.52;;
36555;SDS011;40859;50.560;7.268;2022-12-07T21:22:05;53.87;;;23.73;;
36555;SDS011;40859;50.560;7.268;2022-12-07T21:24:32;59.60;;;24.35;;
36555;SDS011;40859;50.560;7.268;2022-12-07T21:26:59;58.78;;;24.08;;
36555;SDS011;40859;50.560;7.268;2022-12-07T21:29:25;56.72;;;24.23;;
36555;SDS011;40859;50.560;7.268;2022-12-07T21:31:51;62.38;;;22.98;;
36555;SDS011;40859;50.560;7.268;2022-12-07T21:34:17;49.35;;;21.67;;
36555;SDS011;40859;50.560;7.268;2022-12-07T21:36:44;55.12;;;21.83;;
36555;SDS011;40859;50.560;7.268;2022-12-07T21:39:11;57.97;;;21.17;;
36555;SDS011;40859;50.560;7.268;2022-12-07T21:41:37;49.20;;;20.92;;
36555;SDS011;40859;50.560;7.268;2022-12-07T21:44:06;43.87;;;20.25;;
36555;SDS011;40859;50.560;7.268;2022-12-07T21:46:34;46.80;;;20.20;;
36555;SDS011;40859;50.560;7.268;2022-12-07T21:49:03;49.45;;;20.37;;
36555;SDS011;40859;50.560;7.268;2022-12-07T21:51:31;45.60;;;18.85;;
36555;SDS011;40859;50.560;7.268;2022-12-07T21:53:57;40.47;;;18.17;;
36555;SDS011;40859;50.560;7.268;2022-12-07T21:56:32;46.80;;;18.02;;
